sensor_id;sensor_type;location;lat;lon;timestamp;P1;durP1;ratioP1;P2;durP2;ratioP2
8640;SDS011;4358;42.100;25.222;2023-06-01T00:01:54;4.93;;;4.43;;
8640;SDS011;4358;42.100;25.222;2023-06-01T00:04:21;8.27;;;4.73;;
8640;SDS011;4358;42.100;25.222;2023-06-01T00:06:48;5.83;;;4.90;;
8640;SDS011;4358;42.100;25.222;2023-06-01T00:09:16;6.60;;;4.73;;
8640;SDS011;4358;42.100;25.222;2023-06-01T00:11:43;4.73;;;4.33;;
8640;SDS011;4358;42.100;25.222;2023-06-01T00:14:09;6.47;;;5.17;;
8640;SDS011;4358;42.100;25.222;2023-06-01T00:16:36;7.90;;;4.97;;
8640;SDS011;4358;42.100;25.222;2023-06-01T00:19:03;6.93;;;4.93;;
8640;SDS011;4358;42.100;25.222;2023-06-01T00:21:30;7.57;;;5.03;;
8640;SDS011;4358;42.100;25.222;2023-06-01T00:23:58;5.67;;;4.93;;
8640;SDS011;4358;42.100;25.222;2023-06-01T00:26:26;4.87;;;4.47;;
8640;SDS011;4358;42.100;25.222;2023-06-01T00:28:55;5.83;;;4.60;;
8640;SDS011;4358;42.100;25.222;2023-06-01T00:31:21;8.13;;;5.10;;
8640;SDS011;4358;42.100;25.222;2023-06-01T00:33:49;9.23;;;6.97;;
8640;SDS011;4358;42.100;25.222;2023-06-01T00:36:16;8.90;;;7.40;;
8640;SDS011;4358;42.100;25.222;2023-06-01T00:38:43;8.27;;;7.17;;
8640;SDS011;4358;42.100;25.222;2023-06-01T00:41:10;9.67;;;7.40;;
8640;SDS011;4358;42.100;25.222;2023-06-01T00:43:38;10.70;;;7.40;;
8640;SDS011;4358;42.100;25.222;2023-06-01T00:46:04;9.00;;;6.50;;
8640;SDS011;4358;42.100;25.222;2023-06-01T00:48:31;8.43;;;6.93;;
8640;SDS011;4358;42.100;25.222;2023-06-01T00:50:58;8.53;;;7.63;;
8640;SDS011;4358;42.100;25.222;2023-06-01T00:53:25;10.73;;;8.67;;
8640;SDS011;4358;42.100;25.222;2023-06-01T00:55:52;12.60;;;10.23;;
8640;SDS011;4358;42.100;25.222;2023-06-01T00:58:19;9.53;;;7.47;;
8640;SDS011;4358;42.100;25.222;2023-06-01T01:00:47;5.40;;;4.50;;
8640;SDS011;4358;42.100;25.222;2023-06-01T01:03:14;5.07;;;4.60;;
8640;SDS011;4358;42.100;25.222;2023-06-01T01:05:42;6.43;;;4.53;;
8640;SDS011;4358;42.100;25.222;2023-06-01T01:08:11;7.00;;;4.93;;
8640;SDS011;4358;42.100;25.222;2023-06-01T01:10:41;9.63;;;6.97;;
8640;SDS011;4358;42.100;25.222;2023-06-01T01:13:14;10.13;;;8.27;;
8640;SDS011;4358;42.100;25.222;2023-06-01T01:15:49;13.10;;;8.77;;
8640;SDS011;4358;42.100;25.222;2023-06-01T01:18:22;10.30;;;7.50;;
8640;SDS011;4358;42.100;25.222;2023-06-01T01:20:58;8.70;;;7.80;;
8640;SDS011;4358;42.100;25.222;2023-06-01T01:23:33;8.53;;;6.17;;
8640;SDS011;4358;42.100;25.222;2023-06-01T01:29:08;5.70;;;5.20;;
8640;SDS011;4358;42.100;25.222;2023-06-01T01:31:35;8.30;;;5.30;;
8640;SDS011;4358;42.100;25.222;2023-06-01T01:34:04;6.57;;;5.87;;
8640;SDS011;4358;42.100;25.222;2023-06-01T01:36:33;6.13;;;5.53;;
8640;SDS011;4358;42.100;25.222;2023-06-01T01:39:01;6.93;;;5.77;;
8640;SDS011;4358;42.100;25.222;2023-06-01T01:41:28;6.97;;;6.27;;
8640;SDS011;4358;42.100;25.222;2023-06-01T01:43:55;7.10;;;6.23;;
8640;SDS011;4358;42.100;25.222;2023-06-01T01:46:26;7.80;;;5.33;;
8640;SDS011;4358;42.100;25.222;2023-06-01T01:49:00;6.00;;;5.40;;
8640;SDS011;4358;42.100;25.222;2023-06-01T01:51:35;7.43;;;4.93;;
8640;SDS011;4358;42.100;25.222;2023-06-01T01:54:06;5.87;;;5.20;;
8640;SDS011;4358;42.100;25.222;2023-06-01T01:56:34;6.33;;;5.47;;
8640;SDS011;4358;42.100;25.222;2023-06-01T01:59:01;10.73;;;6.53;;
8640;SDS011;4358;42.100;25.222;2023-06-01T02:01:30;10.07;;;7.90;;
8640;SDS011;4358;42.100;25.222;2023-06-01T02:03:59;11.33;;;9.97;;
8640;SDS011;4358;42.100;25.222;2023-06-01T02:06:26;13.27;;;11.07;;
8640;SDS011;4358;42.100;25.222;2023-06-01T02:08:53;14.97;;;13.17;;
8640;SDS011;4358;42.100;25.222;2023-06-01T02:11:20;16.73;;;12.57;;
8640;SDS011;4358;42.100;25.222;2023-06-01T02:13:47;16.03;;;13.17;;
8640;SDS011;4358;42.100;25.222;2023-06-01T02:16:14;13.70;;;10.97;;
8640;SDS011;4358;42.100;25.222;2023-06-01T02:18:44;18.10;;;10.93;;
8640;SDS011;4358;42.100;25.222;2023-06-01T02:21:11;15.67;;;8.63;;
8640;SDS011;4358;42.100;25.222;2023-06-01T02:23:38;10.93;;;7.20;;
8640;SDS011;4358;42.100;25.222;2023-06-01T02:26:05;8.40;;;5.93;;
8640;SDS011;4358;42.100;25.222;2023-06-01T02:28:33;8.70;;;5.67;;
8640;SDS011;4358;42.100;25.222;2023-06-01T02:30:59;6.73;;;6.00;;
8640;SDS011;4358;42.100;25.222;2023-06-01T02:33:26;10.33;;;8.03;;
8640;SDS011;4358;42.100;25.222;2023-06-01T02:35:54;17.67;;;13.83;;
8640;SDS011;4358;42.100;25.222;2023-06-01T02:38:22;17.43;;;14.30;;
8640;SDS011;4358;42.100;25.222;2023-06-01T02:40:48;15.40;;;13.77;;
8640;SDS011;4358;42.100;25.222;2023-06-01T02:43:15;16.63;;;14.80;;
8640;SDS011;4358;42.100;25.222;2023-06-01T02:45:42;16.47;;;14.73;;
8640;SDS011;4358;42.100;25.222;2023-06-01T02:48:08;14.33;;;11.17;;
8640;SDS011;4358;42.100;25.222;2023-06-01T02:50:35;13.47;;;8.87;;
8640;SDS011;4358;42.100;25.222;2023-06-01T02:53:04;13.53;;;12.23;;
8640;SDS011;4358;42.100;25.222;2023-06-01T02:55:31;16.57;;;14.87;;
8640;SDS011;4358;42.100;25.222;2023-06-01T02:57:58;15.90;;;14.30;;
8640;SDS011;4358;42.100;25.222;2023-06-01T03:00:24;13.63;;;11.93;;
8640;SDS011;4358;42.100;25.222;2023-06-01T03:02:52;12.40;;;9.87;;
8640;SDS011;4358;42.100;25.222;2023-06-01T03:05:19;11.03;;;8.40;;
8640;SDS011;4358;42.100;25.222;2023-06-01T03:07:46;8.97;;;7.50;;
8640;SDS011;4358;42.100;25.222;2023-06-01T03:10:14;11.67;;;7.50;;
8640;SDS011;4358;42.100;25.222;2023-06-01T03:12:41;7.23;;;6.50;;
8640;SDS011;4358;42.100;25.222;2023-06-01T03:15:08;8.23;;;6.27;;
8640;SDS011;4358;42.100;25.222;2023-06-01T03:17:36;8.53;;;7.33;;
8640;SDS011;4358;42.100;25.222;2023-06-01T03:20:03;9.90;;;8.67;;
8640;SDS011;4358;42.100;25.222;2023-06-01T03:22:39;10.03;;;8.60;;
8640;SDS011;4358;42.100;25.222;2023-06-01T03:25:06;5.77;;;4.87;;
8640;SDS011;4358;42.100;25.222;2023-06-01T03:27:35;6.63;;;5.00;;
8640;SDS011;4358;42.100;25.222;2023-06-01T03:30:02;6.33;;;4.33;;
8640;SDS011;4358;42.100;25.222;2023-06-01T03:32:29;8.23;;;4.70;;
8640;SDS011;4358;42.100;25.222;2023-06-01T03:34:55;4.57;;;4.17;;
8640;SDS011;4358;42.100;25.222;2023-06-01T03:37:22;4.93;;;4.43;;
8640;SDS011;4358;42.100;25.222;2023-06-01T03:39:49;8.63;;;4.57;;
8640;SDS011;4358;42.100;25.222;2023-06-01T03:42:15;5.73;;;4.87;;
8640;SDS011;4358;42.100;25.222;2023-06-01T03:44:46;6.13;;;4.63;;
8640;SDS011;4358;42.100;25.222;2023-06-01T03:47:12;6.63;;;6.00;;
8640;SDS011;4358;42.100;25.222;2023-06-01T03:49:40;10.27;;;6.93;;
8640;SDS011;4358;42.100;25.222;2023-06-01T03:52:06;9.63;;;8.63;;
8640;SDS011;4358;42.100;25.222;2023-06-01T03:54:33;8.80;;;7.30;;
8640;SDS011;4358;42.100;25.222;2023-06-01T03:57:00;5.73;;;4.70;;
8640;SDS011;4358;42.100;25.222;2023-06-01T03:59:27;5.33;;;4.03;;
8640;SDS011;4358;42.100;25.222;2023-06-01T04:01:55;5.60;;;4.43;;
8640;SDS011;4358;42.100;25.222;2023-06-01T04:04:23;5.67;;;4.70;;
8640;SDS011;4358;42.100;25.222;2023-06-01T04:06:54;4.77;;;4.27;;
8640;SDS011;4358;42.100;25.222;2023-06-01T04:09:28;5.10;;;4.50;;
8640;SDS011;4358;42.100;25.222;2023-06-01T04:11:55;8.10;;;4.93;;
8640;SDS011;4358;42.100;25.222;2023-06-01T04:14:22;6.57;;;5.40;;
8640;SDS011;4358;42.100;25.222;2023-06-01T04:16:48;5.07;;;4.57;;
8640;SDS011;4358;42.100;25.222;2023-06-01T04:19:16;11.03;;;9.63;;
8640;SDS011;4358;42.100;25.222;2023-06-01T04:21:43;7.13;;;5.40;;
8640;SDS011;4358;42.100;25.222;2023-06-01T04:24:10;6.33;;;5.70;;
8640;SDS011;4358;42.100;25.222;2023-06-01T04:26:37;5.67;;;5.03;;
8640;SDS011;4358;42.100;25.222;2023-06-01T04:29:04;6.47;;;5.67;;
8640;SDS011;4358;42.100;25.222;2023-06-01T04:31:30;6.27;;;5.67;;
8640;SDS011;4358;42.100;25.222;2023-06-01T04:33:58;5.60;;;5.00;;
8640;SDS011;4358;42.100;25.222;2023-06-01T04:36:28;6.80;;;5.37;;
8640;SDS011;4358;42.100;25.222;2023-06-01T04:38:55;6.43;;;5.33;;
8640;SDS011;4358;42.100;25.222;2023-06-01T04:41:22;6.53;;;5.83;;
8640;SDS011;4358;42.100;25.222;2023-06-01T04:43:50;7.30;;;6.53;;
8640;SDS011;4358;42.100;25.222;2023-06-01T04:46:18;7.80;;;6.10;;
8640;SDS011;4358;42.100;25.222;2023-06-01T04:48:48;7.63;;;5.93;;
8640;SDS011;4358;42.100;25.222;2023-06-01T04:51:16;8.70;;;5.80;;
8640;SDS011;4358;42.100;25.222;2023-06-01T04:53:46;7.53;;;6.10;;
8640;SDS011;4358;42.100;25.222;2023-06-01T04:56:15;7.50;;;6.57;;
8640;SDS011;4358;42.100;25.222;2023-06-01T04:58:43;6.50;;;5.63;;
8640;SDS011;4358;42.100;25.222;2023-06-01T05:01:12;7.37;;;5.43;;
8640;SDS011;4358;42.100;25.222;2023-06-01T05:03:40;9.10;;;6.17;;
8640;SDS011;4358;42.100;25.222;2023-06-01T05:06:08;5.70;;;5.20;;
8640;SDS011;4358;42.100;25.222;2023-06-01T05:08:35;5.97;;;5.37;;
8640;SDS011;4358;42.100;25.222;2023-06-01T05:11:04;8.43;;;6.03;;
8640;SDS011;4358;42.100;25.222;2023-06-01T05:13:31;6.07;;;5.27;;
8640;SDS011;4358;42.100;25.222;2023-06-01T05:15:58;7.17;;;5.13;;
8640;SDS011;4358;42.100;25.222;2023-06-01T05:18:24;6.27;;;5.63;;
8640;SDS011;4358;42.100;25.222;2023-06-01T05:20:51;5.60;;;5.10;;
8640;SDS011;4358;42.100;25.222;2023-06-01T05:23:18;4.90;;;4.50;;
8640;SDS011;4358;42.100;25.222;2023-06-01T05:25:44;5.30;;;4.43;;
8640;SDS011;4358;42.100;25.222;2023-06-01T05:28:13;5.77;;;4.60;;
8640;SDS011;4358;42.100;25.222;2023-06-01T05:30:40;7.50;;;4.90;;
8640;SDS011;4358;42.100;25.222;2023-06-01T05:33:09;5.97;;;5.00;;
8640;SDS011;4358;42.100;25.222;2023-06-01T05:35:36;5.07;;;4.57;;
8640;SDS011;4358;42.100;25.222;2023-06-01T05:38:03;5.77;;;5.17;;
8640;SDS011;4358;42.100;25.222;2023-06-01T05:40:30;8.33;;;5.40;;
8640;SDS011;4358;42.100;25.222;2023-06-01T05:42:56;6.07;;;5.27;;
8640;SDS011;4358;42.100;25.222;2023-06-01T05:45:24;8.53;;;5.90;;
8640;SDS011;4358;42.100;25.222;2023-06-01T05:47:51;6.10;;;5.40;;
8640;SDS011;4358;42.100;25.222;2023-06-01T05:50:18;10.50;;;6.97;;
8640;SDS011;4358;42.100;25.222;2023-06-01T05:52:45;11.07;;;9.97;;
8640;SDS011;4358;42.100;25.222;2023-06-01T05:55:12;6.43;;;5.83;;
8640;SDS011;4358;42.100;25.222;2023-06-01T05:57:39;6.33;;;5.73;;
8640;SDS011;4358;42.100;25.222;2023-06-01T06:00:06;6.50;;;5.90;;
8640;SDS011;4358;42.100;25.222;2023-06-01T06:02:39;6.47;;;5.30;;
8640;SDS011;4358;42.100;25.222;2023-06-01T06:05:07;7.87;;;5.13;;
8640;SDS011;4358;42.100;25.222;2023-06-01T06:07:34;7.80;;;5.13;;
8640;SDS011;4358;42.100;25.222;2023-06-01T06:10:01;7.43;;;5.90;;
8640;SDS011;4358;42.100;25.222;2023-06-01T06:12:27;8.30;;;5.20;;
8640;SDS011;4358;42.100;25.222;2023-06-01T06:14:54;6.43;;;5.13;;
8640;SDS011;4358;42.100;25.222;2023-06-01T06:17:21;8.33;;;6.03;;
8640;SDS011;4358;42.100;25.222;2023-06-01T06:19:49;6.23;;;5.57;;
8640;SDS011;4358;42.100;25.222;2023-06-01T06:22:16;5.83;;;5.20;;
8640;SDS011;4358;42.100;25.222;2023-06-01T06:24:43;7.17;;;4.90;;
8640;SDS011;4358;42.100;25.222;2023-06-01T06:27:10;7.30;;;5.20;;
8640;SDS011;4358;42.100;25.222;2023-06-01T06:29:36;7.30;;;5.30;;
8640;SDS011;4358;42.100;25.222;2023-06-01T06:32:03;5.47;;;4.93;;
8640;SDS011;4358;42.100;25.222;2023-06-01T06:34:30;6.20;;;5.20;;
8640;SDS011;4358;42.100;25.222;2023-06-01T06:37:02;5.50;;;5.00;;
8640;SDS011;4358;42.100;25.222;2023-06-01T06:39:29;5.37;;;4.87;;
8640;SDS011;4358;42.100;25.222;2023-06-01T06:41:56;5.37;;;4.87;;
8640;SDS011;4358;42.100;25.222;2023-06-01T06:44:23;5.43;;;4.87;;
8640;SDS011;4358;42.100;25.222;2023-06-01T06:46:51;6.57;;;4.77;;
8640;SDS011;4358;42.100;25.222;2023-06-01T06:49:18;8.50;;;5.37;;
8640;SDS011;4358;42.100;25.222;2023-06-01T06:51:44;6.13;;;4.63;;
8640;SDS011;4358;42.100;25.222;2023-06-01T06:54:13;7.77;;;4.93;;
8640;SDS011;4358;42.100;25.222;2023-06-01T06:56:39;6.47;;;4.63;;
8640;SDS011;4358;42.100;25.222;2023-06-01T06:59:06;4.77;;;4.33;;
8640;SDS011;4358;42.100;25.222;2023-06-01T07:01:33;5.97;;;5.00;;
8640;SDS011;4358;42.100;25.222;2023-06-01T07:04:03;5.57;;;4.07;;
8640;SDS011;4358;42.100;25.222;2023-06-01T07:06:31;5.33;;;4.50;;
8640;SDS011;4358;42.100;25.222;2023-06-01T07:08:58;7.77;;;4.93;;
8640;SDS011;4358;42.100;25.222;2023-06-01T07:11:27;6.50;;;4.93;;
8640;SDS011;4358;42.100;25.222;2023-06-01T07:13:54;5.13;;;4.63;;
8640;SDS011;4358;42.100;25.222;2023-06-01T07:16:22;6.43;;;4.60;;
8640;SDS011;4358;42.100;25.222;2023-06-01T07:18:49;5.17;;;4.67;;
8640;SDS011;4358;42.100;25.222;2023-06-01T07:21:17;9.20;;;4.93;;
8640;SDS011;4358;42.100;25.222;2023-06-01T07:23:44;5.50;;;4.90;;
8640;SDS011;4358;42.100;25.222;2023-06-01T07:26:11;5.97;;;4.67;;
8640;SDS011;4358;42.100;25.222;2023-06-01T07:28:39;9.90;;;5.17;;
8640;SDS011;4358;42.100;25.222;2023-06-01T07:31:07;7.33;;;6.03;;
8640;SDS011;4358;42.100;25.222;2023-06-01T07:33:34;6.77;;;5.53;;
8640;SDS011;4358;42.100;25.222;2023-06-01T07:36:01;9.70;;;5.07;;
8640;SDS011;4358;42.100;25.222;2023-06-01T07:38:28;6.83;;;5.40;;
8640;SDS011;4358;42.100;25.222;2023-06-01T07:40:56;7.00;;;5.50;;
8640;SDS011;4358;42.100;25.222;2023-06-01T07:43:23;6.60;;;5.33;;
8640;SDS011;4358;42.100;25.222;2023-06-01T07:45:51;6.23;;;5.50;;
8640;SDS011;4358;42.100;25.222;2023-06-01T07:48:17;6.13;;;5.40;;
8640;SDS011;4358;42.100;25.222;2023-06-01T07:50:44;9.57;;;4.90;;
8640;SDS011;4358;42.100;25.222;2023-06-01T07:53:11;5.70;;;4.93;;
8640;SDS011;4358;42.100;25.222;2023-06-01T07:55:38;9.73;;;6.60;;
8640;SDS011;4358;42.100;25.222;2023-06-01T07:58:05;8.57;;;5.63;;
8640;SDS011;4358;42.100;25.222;2023-06-01T08:00:31;6.67;;;5.60;;
8640;SDS011;4358;42.100;25.222;2023-06-01T08:03:00;6.60;;;5.30;;
8640;SDS011;4358;42.100;25.222;2023-06-01T08:05:31;6.10;;;5.50;;
8640;SDS011;4358;42.100;25.222;2023-06-01T08:07:58;6.63;;;5.70;;
8640;SDS011;4358;42.100;25.222;2023-06-01T08:10:26;7.23;;;6.03;;
8640;SDS011;4358;42.100;25.222;2023-06-01T08:12:52;8.80;;;5.77;;
8640;SDS011;4358;42.100;25.222;2023-06-01T08:15:21;6.03;;;5.30;;
8640;SDS011;4358;42.100;25.222;2023-06-01T08:17:48;6.33;;;5.73;;
8640;SDS011;4358;42.100;25.222;2023-06-01T08:20:16;5.83;;;5.27;;
8640;SDS011;4358;42.100;25.222;2023-06-01T08:22:46;6.70;;;5.33;;
8640;SDS011;4358;42.100;25.222;2023-06-01T08:25:14;6.27;;;5.67;;
8640;SDS011;4358;42.100;25.222;2023-06-01T08:27:40;5.80;;;4.43;;
8640;SDS011;4358;42.100;25.222;2023-06-01T08:30:08;5.53;;;4.97;;
8640;SDS011;4358;42.100;25.222;2023-06-01T08:32:36;5.83;;;4.73;;
8640;SDS011;4358;42.100;25.222;2023-06-01T08:35:03;10.60;;;4.70;;
8640;SDS011;4358;42.100;25.222;2023-06-01T08:37:32;6.63;;;4.43;;
8640;SDS011;4358;42.100;25.222;2023-06-01T08:39:59;8.73;;;6.70;;
8640;SDS011;4358;42.100;25.222;2023-06-01T08:42:30;8.03;;;6.13;;
8640;SDS011;4358;42.100;25.222;2023-06-01T08:45:00;5.67;;;3.83;;
8640;SDS011;4358;42.100;25.222;2023-06-01T08:47:30;4.10;;;3.70;;
8640;SDS011;4358;42.100;25.222;2023-06-01T08:49:58;5.37;;;3.70;;
8640;SDS011;4358;42.100;25.222;2023-06-01T08:52:25;4.70;;;3.80;;
8640;SDS011;4358;42.100;25.222;2023-06-01T08:54:58;8.03;;;3.70;;
8640;SDS011;4358;42.100;25.222;2023-06-01T08:57:26;5.93;;;5.27;;
8640;SDS011;4358;42.100;25.222;2023-06-01T08:59:53;4.37;;;3.97;;
8640;SDS011;4358;42.100;25.222;2023-06-01T09:02:20;7.47;;;4.27;;
8640;SDS011;4358;42.100;25.222;2023-06-01T09:04:47;6.77;;;4.07;;
8640;SDS011;4358;42.100;25.222;2023-06-01T09:07:14;7.83;;;4.20;;
8640;SDS011;4358;42.100;25.222;2023-06-01T09:09:41;4.70;;;3.73;;
8640;SDS011;4358;42.100;25.222;2023-06-01T09:12:17;11.20;;;3.67;;
8640;SDS011;4358;42.100;25.222;2023-06-01T09:14:46;4.57;;;3.70;;
8640;SDS011;4358;42.100;25.222;2023-06-01T09:17:14;4.53;;;3.60;;
8640;SDS011;4358;42.100;25.222;2023-06-01T09:19:46;6.87;;;3.70;;
8640;SDS011;4358;42.100;25.222;2023-06-01T09:22:13;3.93;;;3.53;;
8640;SDS011;4358;42.100;25.222;2023-06-01T09:24:40;3.87;;;3.47;;
8640;SDS011;4358;42.100;25.222;2023-06-01T09:27:07;7.10;;;3.47;;
8640;SDS011;4358;42.100;25.222;2023-06-01T09:29:35;7.50;;;4.50;;
8640;SDS011;4358;42.100;25.222;2023-06-01T09:32:02;3.80;;;3.27;;
8640;SDS011;4358;42.100;25.222;2023-06-01T09:34:29;4.10;;;3.10;;
8640;SDS011;4358;42.100;25.222;2023-06-01T09:36:57;4.97;;;3.55;;
8640;SDS011;4358;42.100;25.222;2023-06-01T09:39:33;7.17;;;3.53;;
8640;SDS011;4358;42.100;25.222;2023-06-01T09:42:00;4.17;;;3.33;;
8640;SDS011;4358;42.100;25.222;2023-06-01T09:44:28;4.35;;;3.60;;
8640;SDS011;4358;42.100;25.222;2023-06-01T09:46:57;6.55;;;4.30;;
8640;SDS011;4358;42.100;25.222;2023-06-01T09:49:26;4.63;;;3.42;;
8640;SDS011;4358;42.100;25.222;2023-06-01T09:52:08;8.38;;;3.45;;
8640;SDS011;4358;42.100;25.222;2023-06-01T09:54:38;5.35;;;3.33;;
8640;SDS011;4358;42.100;25.222;2023-06-01T09:57:06;3.42;;;3.13;;
8640;SDS011;4358;42.100;25.222;2023-06-01T09:59:37;4.47;;;3.17;;
8640;SDS011;4358;42.100;25.222;2023-06-01T10:02:07;3.55;;;2.97;;
8640;SDS011;4358;42.100;25.222;2023-06-01T10:04:38;6.35;;;3.90;;
8640;SDS011;4358;42.100;25.222;2023-06-01T10:07:06;3.65;;;3.30;;
8640;SDS011;4358;42.100;25.222;2023-06-01T10:09:36;4.05;;;2.85;;
8640;SDS011;4358;42.100;25.222;2023-06-01T10:12:05;4.97;;;3.30;;
8640;SDS011;4358;42.100;25.222;2023-06-01T10:14:32;4.30;;;3.53;;
8640;SDS011;4358;42.100;25.222;2023-06-01T10:16:59;4.80;;;3.22;;
8640;SDS011;4358;42.100;25.222;2023-06-01T10:19:28;3.88;;;3.28;;
8640;SDS011;4358;42.100;25.222;2023-06-01T10:21:56;3.63;;;3.17;;
8640;SDS011;4358;42.100;25.222;2023-06-01T10:24:23;4.20;;;3.00;;
8640;SDS011;4358;42.100;25.222;2023-06-01T10:26:55;3.92;;;3.05;;
8640;SDS011;4358;42.100;25.222;2023-06-01T10:29:26;5.43;;;3.33;;
8640;SDS011;4358;42.100;25.222;2023-06-01T10:31:55;4.50;;;4.10;;
8640;SDS011;4358;42.100;25.222;2023-06-01T10:34:37;5.63;;;3.67;;
8640;SDS011;4358;42.100;25.222;2023-06-01T10:37:15;5.22;;;3.00;;
8640;SDS011;4358;42.100;25.222;2023-06-01T10:39:42;5.22;;;3.00;;
8640;SDS011;4358;42.100;25.222;2023-06-01T10:45:07;3.85;;;3.03;;
8640;SDS011;4358;42.100;25.222;2023-06-01T10:47:51;4.03;;;3.28;;
8640;SDS011;4358;42.100;25.222;2023-06-01T10:50:19;5.53;;;3.22;;
8640;SDS011;4358;42.100;25.222;2023-06-01T10:52:46;8.13;;;3.80;;
8640;SDS011;4358;42.100;25.222;2023-06-01T10:55:23;7.03;;;3.50;;
8640;SDS011;4358;42.100;25.222;2023-06-01T10:58:19;4.32;;;3.65;;
8640;SDS011;4358;42.100;25.222;2023-06-01T11:00:47;3.47;;;3.17;;
8640;SDS011;4358;42.100;25.222;2023-06-01T11:03:15;8.60;;;4.10;;
8640;SDS011;4358;42.100;25.222;2023-06-01T11:05:44;5.53;;;4.80;;
8640;SDS011;4358;42.100;25.222;2023-06-01T11:11:18;5.40;;;3.83;;
8640;SDS011;4358;42.100;25.222;2023-06-01T11:16:35;4.15;;;3.33;;
8640;SDS011;4358;42.100;25.222;2023-06-01T11:19:02;3.88;;;3.47;;
8640;SDS011;4358;42.100;25.222;2023-06-01T11:21:33;3.88;;;3.10;;
8640;SDS011;4358;42.100;25.222;2023-06-01T11:24:04;5.93;;;3.40;;
8640;SDS011;4358;42.100;25.222;2023-06-01T11:26:34;5.47;;;3.30;;
8640;SDS011;4358;42.100;25.222;2023-06-01T11:29:13;4.95;;;3.60;;
8640;SDS011;4358;42.100;25.222;2023-06-01T11:31:42;4.00;;;3.60;;
8640;SDS011;4358;42.100;25.222;2023-06-01T11:34:11;5.43;;;4.28;;
8640;SDS011;4358;42.100;25.222;2023-06-01T11:36:42;3.45;;;2.97;;
8640;SDS011;4358;42.100;25.222;2023-06-01T11:39:16;5.45;;;3.45;;
8640;SDS011;4358;42.100;25.222;2023-06-01T11:41:46;3.67;;;3.15;;
8640;SDS011;4358;42.100;25.222;2023-06-01T11:44:13;5.43;;;3.10;;
8640;SDS011;4358;42.100;25.222;2023-06-01T11:46:49;3.33;;;3.03;;
8640;SDS011;4358;42.100;25.222;2023-06-01T11:49:17;6.80;;;3.75;;
8640;SDS011;4358;42.100;25.222;2023-06-01T11:51:45;4.00;;;3.50;;
8640;SDS011;4358;42.100;25.222;2023-06-01T11:54:12;7.00;;;3.78;;
8640;SDS011;4358;42.100;25.222;2023-06-01T11:56:39;5.30;;;3.40;;
8640;SDS011;4358;42.100;25.222;2023-06-01T11:59:06;4.43;;;3.50;;
8640;SDS011;4358;42.100;25.222;2023-06-01T12:01:35;4.25;;;3.42;;
8640;SDS011;4358;42.100;25.222;2023-06-01T12:04:03;4.78;;;3.70;;
8640;SDS011;4358;42.100;25.222;2023-06-01T12:06:33;5.70;;;3.85;;
8640;SDS011;4358;42.100;25.222;2023-06-01T12:09:02;5.45;;;3.90;;
8640;SDS011;4358;42.100;25.222;2023-06-01T12:11:31;4.70;;;4.00;;
8640;SDS011;4358;42.100;25.222;2023-06-01T12:13:59;9.10;;;3.80;;
8640;SDS011;4358;42.100;25.222;2023-06-01T12:19:18;3.80;;;3.50;;
8640;SDS011;4358;42.100;25.222;2023-06-01T12:21:46;4.28;;;3.70;;
8640;SDS011;4358;42.100;25.222;2023-06-01T12:24:15;4.00;;;3.47;;
8640;SDS011;4358;42.100;25.222;2023-06-01T12:26:42;10.02;;;3.70;;
8640;SDS011;4358;42.100;25.222;2023-06-01T12:29:09;4.55;;;3.58;;
8640;SDS011;4358;42.100;25.222;2023-06-01T12:31:37;3.83;;;3.42;;
8640;SDS011;4358;42.100;25.222;2023-06-01T12:34:03;4.32;;;3.92;;
8640;SDS011;4358;42.100;25.222;2023-06-01T12:36:41;7.25;;;3.65;;
8640;SDS011;4358;42.100;25.222;2023-06-01T12:39:09;4.75;;;3.47;;
8640;SDS011;4358;42.100;25.222;2023-06-01T12:41:37;3.88;;;3.47;;
8640;SDS011;4358;42.100;25.222;2023-06-01T12:44:17;8.55;;;3.60;;
8640;SDS011;4358;42.100;25.222;2023-06-01T12:46:45;4.63;;;3.67;;
8640;SDS011;4358;42.100;25.222;2023-06-01T12:49:12;5.15;;;3.35;;
8640;SDS011;4358;42.100;25.222;2023-06-01T12:51:40;3.95;;;3.55;;
8640;SDS011;4358;42.100;25.222;2023-06-01T12:54:06;4.15;;;3.75;;
8640;SDS011;4358;42.100;25.222;2023-06-01T12:56:33;4.35;;;3.95;;
8640;SDS011;4358;42.100;25.222;2023-06-01T12:59:01;3.80;;;3.40;;
8640;SDS011;4358;42.100;25.222;2023-06-01T13:01:28;5.65;;;3.38;;
8640;SDS011;4358;42.100;25.222;2023-06-01T13:03:55;4.90;;;3.33;;
8640;SDS011;4358;42.100;25.222;2023-06-01T13:06:22;5.35;;;3.70;;
8640;SDS011;4358;42.100;25.222;2023-06-01T13:08:49;5.88;;;3.60;;
8640;SDS011;4358;42.100;25.222;2023-06-01T13:11:17;4.60;;;3.88;;
8640;SDS011;4358;42.100;25.222;2023-06-01T13:13:44;6.38;;;3.83;;
8640;SDS011;4358;42.100;25.222;2023-06-01T13:16:12;5.75;;;3.85;;
8640;SDS011;4358;42.100;25.222;2023-06-01T13:18:39;7.78;;;3.67;;
8640;SDS011;4358;42.100;25.222;2023-06-01T13:21:06;4.78;;;3.38;;
8640;SDS011;4358;42.100;25.222;2023-06-01T13:23:33;4.70;;;3.70;;
8640;SDS011;4358;42.100;25.222;2023-06-01T13:26:00;5.03;;;3.58;;
8640;SDS011;4358;42.100;25.222;2023-06-01T13:28:26;5.25;;;3.47;;
8640;SDS011;4358;42.100;25.222;2023-06-01T13:30:53;5.15;;;3.78;;
8640;SDS011;4358;42.100;25.222;2023-06-01T13:33:22;5.97;;;3.42;;
8640;SDS011;4358;42.100;25.222;2023-06-01T13:35:48;4.00;;;3.53;;
8640;SDS011;4358;42.100;25.222;2023-06-01T13:38:15;4.30;;;3.80;;
8640;SDS011;4358;42.100;25.222;2023-06-01T13:40:42;4.70;;;3.50;;
8640;SDS011;4358;42.100;25.222;2023-06-01T13:43:09;5.13;;;4.00;;
8640;SDS011;4358;42.100;25.222;2023-06-01T13:45:35;5.13;;;3.65;;
8640;SDS011;4358;42.100;25.222;2023-06-01T13:48:02;4.95;;;3.80;;
8640;SDS011;4358;42.100;25.222;2023-06-01T13:50:30;5.47;;;4.43;;
8640;SDS011;4358;42.100;25.222;2023-06-01T13:52:57;5.13;;;3.72;;
8640;SDS011;4358;42.100;25.222;2023-06-01T13:55:24;3.80;;;3.40;;
8640;SDS011;4358;42.100;25.222;2023-06-01T13:57:53;4.13;;;3.30;;
8640;SDS011;4358;42.100;25.222;2023-06-01T14:00:19;3.97;;;3.60;;
8640;SDS011;4358;42.100;25.222;2023-06-01T14:02:46;8.43;;;4.00;;
8640;SDS011;4358;42.100;25.222;2023-06-01T14:05:13;3.40;;;3.10;;
8640;SDS011;4358;42.100;25.222;2023-06-01T14:07:41;4.05;;;3.28;;
8640;SDS011;4358;42.100;25.222;2023-06-01T14:10:08;4.20;;;3.63;;
8640;SDS011;4358;42.100;25.222;2023-06-01T14:12:36;7.30;;;3.80;;
8640;SDS011;4358;42.100;25.222;2023-06-01T14:15:03;4.03;;;3.40;;
8640;SDS011;4358;42.100;25.222;2023-06-01T14:17:30;4.20;;;3.38;;
8640;SDS011;4358;42.100;25.222;2023-06-01T14:19:57;6.63;;;3.60;;
8640;SDS011;4358;42.100;25.222;2023-06-01T14:22:24;4.50;;;3.58;;
8640;SDS011;4358;42.100;25.222;2023-06-01T14:24:52;4.90;;;4.07;;
8640;SDS011;4358;42.100;25.222;2023-06-01T14:27:18;5.55;;;3.95;;
8640;SDS011;4358;42.100;25.222;2023-06-01T14:29:46;5.28;;;4.13;;
8640;SDS011;4358;42.100;25.222;2023-06-01T14:32:13;4.72;;;3.83;;
8640;SDS011;4358;42.100;25.222;2023-06-01T14:34:39;5.00;;;3.42;;
8640;SDS011;4358;42.100;25.222;2023-06-01T14:37:06;5.00;;;4.10;;
8640;SDS011;4358;42.100;25.222;2023-06-01T14:39:35;4.45;;;3.53;;
8640;SDS011;4358;42.100;25.222;2023-06-01T14:42:04;4.30;;;3.60;;
8640;SDS011;4358;42.100;25.222;2023-06-01T14:44:31;4.80;;;3.83;;
8640;SDS011;4358;42.100;25.222;2023-06-01T14:46:58;4.40;;;3.47;;
8640;SDS011;4358;42.100;25.222;2023-06-01T14:49:25;4.13;;;3.10;;
8640;SDS011;4358;42.100;25.222;2023-06-01T14:51:52;5.68;;;3.58;;
8640;SDS011;4358;42.100;25.222;2023-06-01T14:54:19;5.35;;;3.42;;
8640;SDS011;4358;42.100;25.222;2023-06-01T14:56:45;6.38;;;3.72;;
8640;SDS011;4358;42.100;25.222;2023-06-01T14:59:13;3.78;;;3.35;;
8640;SDS011;4358;42.100;25.222;2023-06-01T15:01:40;4.88;;;3.72;;
8640;SDS011;4358;42.100;25.222;2023-06-01T15:04:07;3.95;;;3.10;;
8640;SDS011;4358;42.100;25.222;2023-06-01T15:06:34;5.13;;;3.28;;
8640;SDS011;4358;42.100;25.222;2023-06-01T15:09:01;5.72;;;3.50;;
8640;SDS011;4358;42.100;25.222;2023-06-01T15:11:28;4.75;;;3.55;;
8640;SDS011;4358;42.100;25.222;2023-06-01T15:13:55;4.90;;;3.65;;
8640;SDS011;4358;42.100;25.222;2023-06-01T15:16:23;4.20;;;3.33;;
8640;SDS011;4358;42.100;25.222;2023-06-01T15:18:50;4.30;;;3.40;;
8640;SDS011;4358;42.100;25.222;2023-06-01T15:21:17;4.70;;;3.55;;